createdAt,value
2019-01-08T00:01:41.233Z,11.43
2019-01-08T00:04:12.335Z,10.67
2019-01-08T00:06:43.535Z,12.83
2019-01-08T00:09:14.533Z,14.23
2019-01-08T00:11:45.625Z,10.23
2019-01-08T00:14:16.701Z,9.77
2019-01-08T00:16:48.522Z,14.10
2019-01-08T00:19:19.601Z,11.83
2019-01-08T00:21:51.809Z,16.17
2019-01-08T00:24:22.731Z,11.83
2019-01-08T00:26:53.710Z,12.60
2019-01-08T00:29:24.792Z,11.90
2019-01-08T00:31:56.333Z,15.67
2019-01-08T00:34:27.300Z,13.53
2019-01-08T00:36:58.410Z,12.50
2019-01-08T00:39:29.478Z,11.80
2019-01-08T00:42:00.677Z,11.43
2019-01-08T00:44:31.460Z,13.53
2019-01-08T00:47:03.665Z,11.80
2019-01-08T00:49:34.668Z,11.60
2019-01-08T00:52:05.937Z,14.53
2019-01-08T00:54:37.049Z,14.47
2019-01-08T00:57:08.140Z,14.57
2019-01-08T00:59:39.214Z,15.70
2019-01-08T01:02:10.510Z,14.57
2019-01-08T01:04:41.545Z,16.53
2019-01-08T01:07:12.701Z,14.33
2019-01-08T01:09:43.804Z,15.23
2019-01-08T01:12:15.009Z,16.20
2019-01-08T01:14:46.001Z,15.73
2019-01-08T01:17:17.182Z,13.33
2019-01-08T01:19:48.173Z,13.13
2019-01-08T01:22:19.270Z,15.27
2019-01-08T01:24:50.267Z,14.77
2019-01-08T01:27:23.109Z,17.63
2019-01-08T01:29:54.182Z,18.37
2019-01-08T01:32:25.358Z,17.67
2019-01-08T01:34:56.449Z,17.23
2019-01-08T01:37:27.554Z,15.03
2019-01-08T01:39:58.654Z,20.93
2019-01-08T01:42:30.881Z,17.10
2019-01-08T01:45:01.874Z,13.23
2019-01-08T01:47:32.984Z,17.57
2019-01-08T01:50:03.947Z,17.50
2019-01-08T01:52:35.141Z,17.63
2019-01-08T01:55:06.242Z,17.03
2019-01-08T01:57:37.559Z,16.20
2019-01-08T02:00:09.624Z,17.40
2019-01-08T02:02:41.030Z,17.43
2019-01-08T02:05:12.042Z,17.90
2019-01-08T02:07:43.141Z,17.90
2019-01-08T02:10:14.217Z,16.90
2019-01-08T02:12:45.404Z,17.63
2019-01-08T02:15:16.321Z,17.83
2019-01-08T02:17:47.681Z,17.90
2019-01-08T02:20:18.606Z,18.77
2019-01-08T02:22:49.698Z,16.73
2019-01-08T02:25:20.694Z,15.40
2019-01-08T02:27:51.873Z,13.70
2019-01-08T02:30:22.866Z,14.97
2019-01-08T02:32:54.177Z,13.10
2019-01-08T02:35:25.349Z,20.13
2019-01-08T02:37:56.525Z,13.00
2019-01-08T02:40:27.615Z,15.53
2019-01-08T02:42:58.733Z,14.70
2019-01-08T02:45:30.931Z,11.10
2019-01-08T02:48:03.056Z,15.37
2019-01-08T02:50:34.157Z,12.87
2019-01-08T02:53:05.254Z,17.10
2019-01-08T02:55:36.244Z,16.87
2019-01-08T02:58:07.529Z,17.03
2019-01-08T03:00:38.530Z,14.10
2019-01-08T03:03:09.629Z,14.97
2019-01-08T03:05:40.706Z,13.43
2019-01-08T03:08:11.974Z,14.83
2019-01-08T03:10:42.996Z,15.07
2019-01-08T03:13:14.015Z,13.17
2019-01-08T03:15:46.013Z,12.10
2019-01-08T03:18:17.265Z,14.47
2019-01-08T03:20:48.296Z,14.50
2019-01-08T03:23:19.293Z,14.67
2019-01-08T03:25:50.248Z,16.27
2019-01-08T03:28:21.257Z,16.27
2019-01-08T03:30:52.356Z,12.63
2019-01-08T03:33:23.543Z,18.70
2019-01-08T03:35:54.746Z,14.17
2019-01-08T03:38:25.921Z,13.17
2019-01-08T03:40:56.929Z,14.47
2019-01-08T03:43:28.121Z,14.93
2019-01-08T03:45:59.215Z,15.23
2019-01-08T03:48:30.409Z,15.07
2019-01-08T03:51:01.400Z,14.40
2019-01-08T03:53:33.336Z,15.67
2019-01-08T03:56:04.409Z,14.00
2019-01-08T03:58:35.493Z,14.83
2019-01-08T04:01:06.682Z,15.73
2019-01-08T04:03:37.873Z,14.60
2019-01-08T04:06:08.882Z,13.47
2019-01-08T04:08:40.173Z,16.17
2019-01-08T04:11:11.254Z,12.50
2019-01-08T04:13:42.437Z,14.90
2019-01-08T04:16:13.541Z,14.07
2019-01-08T04:18:44.649Z,13.53
2019-01-08T04:21:15.531Z,15.90
2019-01-08T04:23:46.709Z,13.23
2019-01-08T04:26:17.806Z,12.57
2019-01-08T04:28:49.011Z,12.87
2019-01-08T04:31:19.997Z,15.10
2019-01-08T04:33:51.285Z,12.40
2019-01-08T04:36:22.409Z,12.03
2019-01-08T04:38:53.685Z,13.33
2019-01-08T04:41:24.853Z,10.40
2019-01-08T04:43:56.124Z,15.00
2019-01-08T04:46:27.165Z,11.60
2019-01-08T04:48:58.363Z,13.77
2019-01-08T04:51:29.451Z,11.83
2019-01-08T04:54:00.536Z,13.00
2019-01-08T04:56:31.533Z,11.17
2019-01-08T04:59:02.638Z,10.53
2019-01-08T05:01:33.694Z,9.87
2019-01-08T05:04:04.802Z,8.90
2019-01-08T05:06:35.897Z,9.07
2019-01-08T05:09:07.806Z,9.23
2019-01-08T05:11:38.805Z,10.30
2019-01-08T05:14:11.018Z,10.77
2019-01-08T05:16:42.009Z,7.03
2019-01-08T05:19:13.270Z,7.73
2019-01-08T05:21:44.389Z,7.67
2019-01-08T05:24:15.569Z,10.57
2019-01-08T05:26:46.698Z,8.33
2019-01-08T05:29:17.994Z,7.83
2019-01-08T05:31:49.073Z,9.97
2019-01-08T05:34:20.193Z,10.93
2019-01-08T05:36:51.363Z,10.70
2019-01-08T05:39:22.553Z,12.10
2019-01-08T05:41:53.755Z,9.43
2019-01-08T05:44:24.905Z,7.63
2019-01-08T05:46:55.929Z,9.50
2019-01-08T05:49:27.134Z,9.37
2019-01-08T05:51:58.141Z,8.77
2019-01-08T05:54:29.338Z,9.47
2019-01-08T05:57:00.561Z,6.20
2019-01-08T05:59:31.720Z,8.10
2019-01-08T06:02:02.697Z,6.80
2019-01-08T06:04:33.809Z,7.77
2019-01-08T06:07:04.781Z,6.73
2019-01-08T06:09:36.069Z,8.40
2019-01-08T06:12:06.746Z,6.90
2019-01-08T06:14:38.870Z,7.67
2019-01-08T06:17:09.961Z,8.50
2019-01-08T06:19:41.157Z,7.53
2019-01-08T06:22:12.245Z,7.80
2019-01-08T06:24:43.453Z,8.17
2019-01-08T06:27:14.338Z,8.87
2019-01-08T06:29:45.457Z,11.40
2019-01-08T06:32:16.616Z,5.73
2019-01-08T06:34:47.902Z,6.57
2019-01-08T06:37:18.905Z,7.40
2019-01-08T06:39:50.264Z,8.17
2019-01-08T06:42:21.312Z,6.07
2019-01-08T06:44:52.498Z,5.87
2019-01-08T06:47:23.481Z,7.20
2019-01-08T06:49:54.765Z,8.53
2019-01-08T06:52:25.769Z,5.30
2019-01-08T06:54:56.771Z,7.10
2019-01-08T06:57:27.841Z,5.27
2019-01-08T06:59:58.969Z,7.33
2019-01-08T07:02:29.937Z,5.10
2019-01-08T07:05:01.130Z,7.63
2019-01-08T07:07:32.213Z,7.00
2019-01-08T07:10:03.522Z,4.60
2019-01-08T07:12:34.401Z,4.03
2019-01-08T07:15:05.613Z,5.30
2019-01-08T07:17:36.589Z,3.13
2019-01-08T07:20:08.330Z,3.33
2019-01-08T07:22:39.385Z,3.57
2019-01-08T07:25:10.581Z,3.00
2019-01-08T07:27:41.579Z,2.33
2019-01-08T07:30:12.677Z,1.97
2019-01-08T07:32:43.653Z,1.70
2019-01-08T07:35:14.861Z,1.97
2019-01-08T07:37:46.038Z,2.43
2019-01-08T07:40:17.141Z,1.67
2019-01-08T07:42:47.925Z,2.73
2019-01-08T07:45:19.333Z,1.43
2019-01-08T07:47:50.301Z,1.77
2019-01-08T07:50:21.417Z,1.50
2019-01-08T07:52:52.298Z,1.07
2019-01-08T07:55:23.449Z,2.47
2019-01-08T07:57:54.465Z,1.40
2019-01-08T08:00:25.865Z,1.23
2019-01-08T08:02:56.874Z,1.13
2019-01-08T08:05:28.293Z,1.80
2019-01-08T08:07:59.345Z,1.27
2019-01-08T08:10:30.561Z,1.73
2019-01-08T08:13:01.537Z,1.10
2019-01-08T08:15:32.637Z,1.70
2019-01-08T08:18:03.626Z,1.13
2019-01-08T08:20:34.722Z,1.20
2019-01-08T08:23:05.681Z,1.50
2019-01-08T08:25:36.904Z,1.40
2019-01-08T08:28:07.995Z,1.53
2019-01-08T08:30:39.185Z,2.00
2019-01-08T08:33:10.259Z,1.47
2019-01-08T08:35:41.377Z,2.40
2019-01-08T08:38:12.570Z,1.70
2019-01-08T08:40:43.661Z,1.30
2019-01-08T08:43:14.745Z,1.10
2019-01-08T08:45:45.911Z,1.50
2019-01-08T08:48:16.936Z,1.10
2019-01-08T08:50:48.106Z,1.43
2019-01-08T08:53:19.295Z,0.80
2019-01-08T08:55:50.452Z,0.87
2019-01-08T08:58:21.415Z,0.93
2019-01-08T09:00:52.710Z,1.13
2019-01-08T09:03:23.794Z,0.70
2019-01-08T09:05:54.986Z,1.00
2019-01-08T09:08:26.061Z,1.23
2019-01-08T09:10:57.273Z,0.87
2019-01-08T09:13:28.275Z,0.90
2019-01-08T09:15:59.378Z,1.10
2019-01-08T09:18:30.359Z,0.80
2019-01-08T09:21:02.057Z,1.63
2019-01-08T09:23:33.056Z,1.57
2019-01-08T09:26:04.181Z,2.47
2019-01-08T09:28:35.237Z,1.50
2019-01-08T09:31:06.529Z,1.70
2019-01-08T09:33:37.520Z,0.90
2019-01-08T09:36:08.618Z,1.50
2019-01-08T09:38:39.797Z,1.70
2019-01-08T09:41:11.009Z,1.90
2019-01-08T09:43:42.017Z,0.80
2019-01-08T09:46:13.185Z,0.87
2019-01-08T09:48:44.074Z,1.23
2019-01-08T09:51:15.165Z,1.10
2019-01-08T09:53:46.149Z,0.90
2019-01-08T09:56:17.611Z,1.93
2019-01-08T09:58:48.664Z,1.43
2019-01-08T10:01:24.045Z,2.00
2019-01-08T10:03:52.461Z,2.00
2019-01-08T10:06:23.665Z,1.53
2019-01-08T10:08:54.660Z,1.33
2019-01-08T10:11:26.014Z,1.43
2019-01-08T10:13:57.047Z,2.93
2019-01-08T10:16:28.230Z,1.80
2019-01-08T10:18:59.227Z,1.23
2019-01-08T10:21:30.420Z,1.00
2019-01-08T10:24:02.145Z,1.33
2019-01-08T10:26:33.428Z,1.30
2019-01-08T10:29:04.422Z,1.20
2019-01-08T10:31:35.514Z,2.73
2019-01-08T10:34:06.602Z,1.07
2019-01-08T10:36:37.705Z,2.43
2019-01-08T10:39:10.209Z,1.90
2019-01-08T10:41:41.338Z,1.80
2019-01-08T10:44:12.346Z,1.10
2019-01-08T10:46:43.482Z,1.30
2019-01-08T10:49:16.221Z,1.47
2019-01-08T10:51:48.227Z,1.07
2019-01-08T10:54:19.328Z,0.70
2019-01-08T10:56:50.517Z,1.73
2019-01-08T10:59:21.610Z,1.03
2019-01-08T11:01:52.815Z,1.83
2019-01-08T11:04:23.799Z,1.50
2019-01-08T11:06:55.993Z,0.93
2019-01-08T11:09:27.197Z,0.83
2019-01-08T11:11:58.414Z,1.33
2019-01-08T11:14:29.497Z,1.30
2019-01-08T11:17:00.785Z,1.47
2019-01-08T11:19:31.736Z,2.93
2019-01-08T11:22:02.874Z,1.10
2019-01-08T11:24:33.887Z,1.53
2019-01-08T11:27:05.058Z,1.63
2019-01-08T11:29:36.084Z,2.00
2019-01-08T11:32:07.338Z,1.60
2019-01-08T11:34:39.896Z,1.70
2019-01-08T11:37:11.270Z,1.73
2019-01-08T11:39:42.365Z,1.73
2019-01-08T11:42:13.465Z,1.93
2019-01-08T11:44:44.361Z,2.80
2019-01-08T11:47:15.453Z,2.10
2019-01-08T11:49:46.530Z,3.40
2019-01-08T11:52:17.637Z,2.37
2019-01-08T11:54:48.617Z,2.00
2019-01-08T11:57:19.797Z,1.90
2019-01-08T11:59:50.901Z,1.20
2019-01-08T12:02:22.100Z,2.23
2019-01-08T12:04:53.097Z,1.60
2019-01-08T12:07:31.174Z,1.40
2019-01-08T12:09:57.009Z,1.53
2019-01-08T12:12:28.210Z,2.90
2019-01-08T12:14:59.201Z,2.20
2019-01-08T12:17:30.289Z,1.57
2019-01-08T12:20:02.401Z,1.50
2019-01-08T12:22:40.613Z,1.53
2019-01-08T12:25:06.547Z,2.07
2019-01-08T12:27:37.648Z,2.97
2019-01-08T12:30:09.674Z,1.63
2019-01-08T12:32:40.937Z,1.50
2019-01-08T12:35:11.938Z,3.70
2019-01-08T12:37:43.133Z,1.27
2019-01-08T12:40:14.216Z,1.50
2019-01-08T12:42:45.405Z,1.70
2019-01-08T12:45:16.313Z,1.27
2019-01-08T12:47:47.409Z,2.70
2019-01-08T12:50:18.374Z,0.93
2019-01-08T12:52:49.593Z,4.13
2019-01-08T12:55:20.565Z,1.00
2019-01-08T12:57:51.947Z,1.30
2019-01-08T13:00:22.954Z,1.73
2019-01-08T13:02:53.862Z,1.40
2019-01-08T13:05:24.834Z,1.17
2019-01-08T13:07:56.930Z,2.80
2019-01-08T13:10:28.030Z,3.23
2019-01-08T13:13:00.153Z,3.13
2019-01-08T13:15:32.164Z,2.90
2019-01-08T13:18:03.374Z,2.53
2019-01-08T13:20:34.273Z,3.40
2019-01-08T13:23:05.680Z,6.47
2019-01-08T13:25:36.749Z,3.50
2019-01-08T13:28:07.949Z,6.03
2019-01-08T13:30:40.024Z,4.80
2019-01-08T13:33:11.057Z,10.50
2019-01-08T13:35:42.045Z,9.63
2019-01-08T13:38:13.222Z,8.00
2019-01-08T13:40:44.221Z,2.80
2019-01-08T13:43:15.316Z,3.20
2019-01-08T13:45:46.310Z,4.50
2019-01-08T13:48:17.497Z,2.13
2019-01-08T13:50:48.381Z,2.53
2019-01-08T13:53:20.513Z,1.53
2019-01-08T13:55:51.589Z,2.70
2019-01-08T13:58:22.857Z,1.90
2019-01-08T14:00:53.969Z,1.90
2019-01-08T14:03:25.166Z,1.30
2019-01-08T14:05:56.164Z,4.67
2019-01-08T14:08:27.437Z,2.60
2019-01-08T14:10:58.453Z,1.43
2019-01-08T14:13:29.553Z,3.17
2019-01-08T14:16:00.529Z,2.30
2019-01-08T14:18:34.510Z,7.27
2019-01-08T14:21:05.266Z,8.93
2019-01-08T14:23:36.381Z,2.90
2019-01-08T14:26:07.361Z,6.23
2019-01-08T14:28:38.562Z,4.40
2019-01-08T14:31:09.640Z,5.37
2019-01-08T14:33:40.745Z,5.33
2019-01-08T14:36:11.741Z,4.47
2019-01-08T14:38:42.929Z,5.13
2019-01-08T14:41:14.009Z,4.80
2019-01-08T14:43:45.109Z,4.87
2019-01-08T14:46:16.093Z,2.10
2019-01-08T14:48:47.309Z,6.80
2019-01-08T14:51:18.272Z,1.63
2019-01-08T14:53:49.458Z,3.50
2019-01-08T14:56:20.469Z,2.00
2019-01-08T14:58:51.773Z,3.20
2019-01-08T15:01:22.753Z,4.60
2019-01-08T15:03:53.858Z,2.77
2019-01-08T15:06:24.918Z,2.63
2019-01-08T15:08:56.134Z,2.93
2019-01-08T15:11:27.489Z,3.47
2019-01-08T15:13:58.938Z,2.60
2019-01-08T15:16:29.918Z,2.70
2019-01-08T15:19:01.105Z,5.77
2019-01-08T15:21:32.105Z,2.33
2019-01-08T15:24:03.933Z,5.00
2019-01-08T15:26:34.901Z,2.33
2019-01-08T15:29:06.111Z,2.90
2019-01-08T15:31:37.191Z,2.17
2019-01-08T15:34:08.294Z,3.23
2019-01-08T15:36:39.273Z,2.70
2019-01-08T15:39:10.577Z,1.90
2019-01-08T15:41:41.562Z,4.80
2019-01-08T15:44:15.343Z,1.97
2019-01-08T15:46:45.383Z,1.10
2019-01-08T15:49:16.570Z,2.00
2019-01-08T15:51:47.565Z,1.37
2019-01-08T15:54:18.762Z,4.33
2019-01-08T15:56:49.957Z,2.47
2019-01-08T15:59:21.141Z,2.67
2019-01-08T16:01:53.169Z,2.53
2019-01-08T16:04:24.288Z,2.67
2019-01-08T16:06:55.445Z,3.07
2019-01-08T16:09:26.638Z,3.90
2019-01-08T16:11:57.735Z,6.80
2019-01-08T16:14:28.934Z,6.37
2019-01-08T16:17:00.023Z,8.63
2019-01-08T16:19:31.241Z,5.80
2019-01-08T16:22:02.212Z,4.60
2019-01-08T16:24:33.513Z,3.80
2019-01-08T16:27:04.396Z,2.80
2019-01-08T16:29:35.495Z,6.37
2019-01-08T16:32:06.588Z,2.57
2019-01-08T16:34:37.890Z,3.43
2019-01-08T16:37:08.876Z,5.30
2019-01-08T16:39:39.993Z,4.30
2019-01-08T16:42:11.046Z,6.60
2019-01-08T16:44:42.156Z,5.67
2019-01-08T16:47:13.140Z,4.13
2019-01-08T16:49:44.249Z,4.50
2019-01-08T16:52:16.242Z,5.70
2019-01-08T16:54:47.433Z,5.17
2019-01-08T16:57:18.517Z,2.77
2019-01-08T16:59:49.643Z,2.80
2019-01-08T17:02:20.689Z,3.30
2019-01-08T17:04:51.805Z,4.03
2019-01-08T17:07:23.914Z,2.93
2019-01-08T17:09:55.533Z,4.33
2019-01-08T17:12:26.713Z,4.80
2019-01-08T17:14:58.095Z,3.53
2019-01-08T17:17:29.114Z,12.13
2019-01-08T17:20:00.267Z,9.30
2019-01-08T17:22:31.302Z,7.90
2019-01-08T17:25:02.513Z,10.70
2019-01-08T17:27:33.489Z,16.00
2019-01-08T17:30:04.727Z,14.67
2019-01-08T17:32:36.074Z,9.33
2019-01-08T17:35:07.289Z,13.43
2019-01-08T17:37:38.349Z,8.63
2019-01-08T17:40:09.669Z,8.40
2019-01-08T17:42:41.774Z,8.90
2019-01-08T17:45:12.952Z,4.20
2019-01-08T17:47:44.158Z,10.93
2019-01-08T17:50:15.441Z,5.03
2019-01-08T17:52:46.550Z,5.53
2019-01-08T17:55:17.553Z,6.57
2019-01-08T17:57:48.533Z,4.53
2019-01-08T18:00:19.642Z,5.57
2019-01-08T18:02:54.074Z,4.00
2019-01-08T18:05:25.296Z,3.67
2019-01-08T18:07:56.281Z,3.77
2019-01-08T18:10:27.583Z,5.90
2019-01-08T18:12:58.676Z,3.70
2019-01-08T18:15:29.677Z,4.07
2019-01-08T18:18:00.645Z,3.20
2019-01-08T18:20:31.853Z,5.23
2019-01-08T18:23:03.034Z,4.63
2019-01-08T18:25:34.139Z,4.07
2019-01-08T18:28:05.834Z,3.60
2019-01-08T18:30:37.132Z,3.77
2019-01-08T18:33:07.797Z,6.53
2019-01-08T18:35:38.921Z,3.00
2019-01-08T18:38:09.997Z,4.03
2019-01-08T18:40:41.213Z,4.40
2019-01-08T18:43:14.111Z,5.33
2019-01-08T18:45:45.493Z,3.97
2019-01-08T18:48:16.522Z,3.37
2019-01-08T18:50:47.689Z,3.50
2019-01-08T18:53:18.798Z,7.83
2019-01-08T18:55:50.617Z,3.20
2019-01-08T18:58:21.716Z,3.70
2019-01-08T19:00:52.817Z,3.43
2019-01-08T19:03:23.806Z,4.97
2019-01-08T19:05:55.298Z,5.83
2019-01-08T19:08:53.194Z,8.50
2019-01-08T19:11:24.205Z,6.47
2019-01-08T19:13:55.197Z,7.10
2019-01-08T19:16:26.346Z,8.17
2019-01-08T19:18:57.370Z,8.63
2019-01-08T19:21:28.559Z,6.30
2019-01-08T19:23:59.577Z,4.40
2019-01-08T19:26:30.933Z,4.60
2019-01-08T19:29:01.953Z,8.13
2019-01-08T19:31:33.153Z,5.43
2019-01-08T19:34:08.888Z,4.13
2019-01-08T19:36:36.961Z,4.77
2019-01-08T19:39:08.873Z,3.07
2019-01-08T19:41:44.189Z,2.90
2019-01-08T19:44:18.558Z,3.53
2019-01-08T19:46:49.630Z,3.00
2019-01-08T19:49:21.429Z,2.50
2019-01-08T19:51:52.661Z,3.13
2019-01-08T19:54:23.548Z,3.17
2019-01-08T19:56:55.529Z,2.50
2019-01-08T19:59:26.534Z,3.13
2019-01-08T20:01:57.726Z,4.13
2019-01-08T20:04:28.824Z,5.43
2019-01-08T20:06:59.931Z,3.70
2019-01-08T20:09:30.918Z,3.43
2019-01-08T20:12:02.098Z,2.63
2019-01-08T20:14:34.012Z,2.87
2019-01-08T20:17:06.015Z,5.90
2019-01-08T20:19:37.125Z,3.53
2019-01-08T20:22:08.327Z,2.10
2019-01-08T20:24:39.397Z,4.33
2019-01-08T20:27:10.670Z,3.37
2019-01-08T20:29:41.777Z,3.10
2019-01-08T20:32:12.886Z,5.40
2019-01-08T20:34:43.989Z,2.57
2019-01-08T20:37:15.361Z,2.60
2019-01-08T20:39:46.558Z,5.40
2019-01-08T20:42:17.662Z,4.10
2019-01-08T20:44:48.953Z,2.10
2019-01-08T20:47:20.066Z,4.43
2019-01-08T20:49:51.209Z,4.67
2019-01-08T20:52:22.242Z,5.13
2019-01-08T20:54:53.317Z,10.20
2019-01-08T20:57:25.265Z,11.10
2019-01-08T20:59:56.321Z,30.07
2019-01-08T21:02:27.600Z,23.23
2019-01-08T21:04:58.628Z,17.83
2019-01-08T21:07:29.885Z,12.97
2019-01-08T21:10:01.006Z,26.67
2019-01-08T21:12:32.217Z,11.77
2019-01-08T21:15:03.369Z,15.87
2019-01-08T21:17:34.525Z,6.40
2019-01-08T21:20:06.953Z,5.50
2019-01-08T21:22:38.469Z,3.07
2019-01-08T21:25:09.957Z,4.07
2019-01-08T21:27:40.960Z,3.30
2019-01-08T21:30:12.049Z,4.77
2019-01-08T21:32:43.229Z,3.43
2019-01-08T21:35:14.421Z,4.53
2019-01-08T21:37:45.861Z,3.57
2019-01-08T21:40:19.335Z,3.40
2019-01-08T21:42:50.369Z,4.60
2019-01-08T21:45:21.677Z,4.40
2019-01-08T21:47:54.176Z,6.47
2019-01-08T21:50:25.209Z,3.27
2019-01-08T21:52:56.096Z,4.03
2019-01-08T21:55:27.612Z,2.97
2019-01-08T21:57:58.669Z,8.20
2019-01-08T22:00:29.893Z,4.63
2019-01-08T22:03:01.878Z,2.87
2019-01-08T22:05:33.074Z,3.77
2019-01-08T22:08:04.194Z,3.00
2019-01-08T22:10:35.173Z,7.57
2019-01-08T22:13:06.478Z,10.63
2019-01-08T22:15:37.637Z,9.20
2019-01-08T22:18:08.534Z,11.83
2019-01-08T22:20:40.259Z,13.00
2019-01-08T22:23:11.325Z,14.07
2019-01-08T22:25:42.434Z,17.53
2019-01-08T22:28:13.425Z,12.23
2019-01-08T22:30:44.613Z,3.50
2019-01-08T22:33:16.768Z,3.20
2019-01-08T22:35:48.148Z,3.83
2019-01-08T22:38:19.214Z,2.67
2019-01-08T22:40:50.334Z,5.07
2019-01-08T22:43:21.497Z,2.03
2019-01-08T22:45:52.793Z,2.60
2019-01-08T22:48:24.009Z,1.30
2019-01-08T22:50:55.197Z,1.83
2019-01-08T22:53:26.284Z,2.47
2019-01-08T22:55:57.801Z,3.00
2019-01-08T22:58:29.695Z,1.80
2019-01-08T23:01:11.266Z,2.10
2019-01-08T23:03:42.505Z,2.10
2019-01-08T23:06:13.617Z,3.30
2019-01-08T23:08:45.729Z,2.90
2019-01-08T23:11:18.962Z,5.27
2019-01-08T23:13:49.965Z,3.53
2019-01-08T23:16:21.316Z,6.60
2019-01-08T23:18:52.357Z,2.43
2019-01-08T23:21:23.469Z,5.30
2019-01-08T23:23:55.465Z,2.90
2019-01-08T23:26:26.650Z,3.73
2019-01-08T23:28:57.742Z,3.63
2019-01-08T23:31:29.040Z,9.20
2019-01-08T23:34:00.042Z,4.70
2019-01-08T23:36:31.395Z,3.40
2019-01-08T23:39:02.422Z,3.07
2019-01-08T23:41:35.053Z,4.30
2019-01-08T23:44:05.951Z,3.60
2019-01-08T23:46:37.146Z,5.97
2019-01-08T23:49:08.223Z,4.53
2019-01-08T23:51:39.497Z,5.20
2019-01-08T23:54:11.721Z,7.53
2019-01-08T23:56:42.853Z,4.20
2019-01-08T23:59:13.929Z,3.37
